Time;durP1;ratioP1;P1;durP2;ratioP2;P2;SDS_P1;SDS_P2;PMS_P1;PMS_P2;Temp;Humidity;BMP_temperature;BMP_pressure;BME280_temperature;BME280_humidity;BME280_pressure;Samples;Min_cycle;Max_cycle;Signal;HPM_P1;HPM_P2
2023/12/08 00:01:25;;;;;;;6.03;2.85;;;-2.00;99.90;;;;;;5002741;28;20482;-58
2023/12/08 00:03:52;;;;;;;6.35;3.03;;;-2.00;99.90;;;;;;5005602;28;20113;-54
2023/12/08 00:06:18;;;;;;;8.20;2.88;;;-1.90;99.90;;;;;;4999027;28;20046;-57
2023/12/08 00:08:45;;;;;;;5.43;2.83;;;-1.80;99.90;;;;;;4996278;28;20394;-55
2023/12/08 00:11:12;;;;;;;6.63;3.00;;;-1.70;99.90;;;;;;5003018;28;20394;-58
2023/12/08 00:13:40;;;;;;;4.53;2.38;;;-1.60;99.90;;;;;;5004161;28;20501;-62
2023/12/08 00:16:08;;;;;;;5.72;2.60;;;-1.60;99.90;;;;;;4996292;28;20043;-59
2023/12/08 00:18:35;;;;;;;7.38;2.60;;;-1.60;99.90;;;;;;5004581;28;20487;-60
2023/12/08 00:21:02;;;;;;;3.60;2.25;;;-1.60;99.90;;;;;;5003388;28;20376;-59
2023/12/08 00:23:29;;;;;;;4.80;1.20;;;-1.60;99.90;;;;;;5006922;28;20047;-59
2023/12/08 00:25:56;;;;;;;5.47;2.25;;;-1.60;99.90;;;;;;5008369;28;20037;-59
2023/12/08 00:28:25;;;;;;;5.75;2.88;;;-1.60;99.90;;;;;;5005523;28;20052;-59
2023/12/08 00:30:52;;;;;;;4.18;1.60;;;-1.60;99.90;;;;;;5005401;28;20042;-59
2023/12/08 00:33:19;;;;;;;5.57;2.47;;;-1.60;99.90;;;;;;5008713;28;20050;-59
2023/12/08 00:35:48;;;;;;;4.28;2.45;;;-1.60;99.90;;;;;;5009631;28;20070;-59
2023/12/08 00:38:14;;;;;;;5.90;3.13;;;-1.60;99.90;;;;;;5010995;28;20046;-60
2023/12/08 00:40:41;;;;;;;5.53;2.75;;;-1.60;99.90;;;;;;5011228;28;20113;-59
2023/12/08 00:43:08;;;;;;;6.38;3.13;;;-1.70;99.90;;;;;;5008062;28;20046;-59
2023/12/08 00:45:35;;;;;;;7.03;3.17;;;-1.70;99.90;;;;;;5011178;28;20045;-60
2023/12/08 00:48:01;;;;;;;5.70;3.38;;;-1.80;99.90;;;;;;5011299;28;20120;-59
2023/12/08 00:50:28;;;;;;;6.63;2.25;;;-1.80;99.90;;;;;;5008022;28;20069;-60
2023/12/08 00:52:55;;;;;;;6.97;2.90;;;-1.80;99.90;;;;;;5011140;28;20053;-60
2023/12/08 00:55:22;;;;;;;5.28;2.40;;;-1.90;99.90;;;;;;5006152;28;20058;-60
2023/12/08 00:57:49;;;;;;;7.85;2.42;;;-1.80;99.90;;;;;;5015086;28;20566;-59
2023/12/08 01:00:17;;;;;;;6.60;3.30;;;-1.80;99.90;;;;;;5002981;28;20129;-59
2023/12/08 01:02:44;;;;;;;6.32;3.08;;;-1.80;99.90;;;;;;5012065;28;20037;-60
2023/12/08 01:05:11;;;;;;;7.68;3.10;;;-1.80;99.90;;;;;;5009921;28;20040;-59
2023/12/08 01:07:38;;;;;;;6.10;3.00;;;-1.90;99.90;;;;;;5011468;28;20038;-60
2023/12/08 01:10:07;;;;;;;6.53;3.00;;;-2.00;99.90;;;;;;5009145;28;20041;-60
2023/12/08 01:12:33;;;;;;;9.75;4.03;;;-2.10;99.90;;;;;;5014386;28;20045;-60
2023/12/08 01:15:00;;;;;;;8.13;3.35;;;-2.20;99.90;;;;;;5007960;28;20072;-58
2023/12/08 01:17:27;;;;;;;3.75;2.45;;;-2.30;99.90;;;;;;5013159;28;20054;-59
2023/12/08 01:19:55;;;;;;;6.50;2.65;;;-2.30;99.90;;;;;;5009945;28;20100;-60
2023/12/08 01:22:27;;;;;;;7.18;2.90;;;-2.40;99.90;;;;;;5011799;28;20038;-60
2023/12/08 01:24:54;;;;;;;8.15;2.53;;;-2.30;99.90;;;;;;5014024;28;20125;-59
2023/12/08 01:27:21;;;;;;;6.60;3.15;;;-2.30;99.90;;;;;;5014652;28;20041;-58
2023/12/08 01:29:50;;;;;;;3.30;1.65;;;-2.30;99.90;;;;;;5006914;28;20041;-59
2023/12/08 01:32:17;;;;;;;;;;;-2.30;99.90;;;;;;5014570;28;20100;-59
2023/12/08 01:34:44;;;;;;;4.97;2.33;;;-2.30;99.90;;;;;;5014419;28;19925;-59
2023/12/08 01:37:11;;;;;;;4.88;2.65;;;-2.30;99.90;;;;;;5014616;28;20487;-60
2023/12/08 01:39:37;;;;;;;5.50;2.60;;;-2.20;99.90;;;;;;5005877;28;20042;-59
2023/12/08 01:42:04;;;;;;;5.07;2.90;;;-2.30;99.90;;;;;;5014054;28;20042;-60
2023/12/08 01:44:31;;;;;;;6.20;2.83;;;-2.20;99.90;;;;;;5014222;28;20045;-59
2023/12/08 01:46:58;;;;;;;3.75;2.65;;;-2.20;99.90;;;;;;5008452;28;20038;-60
2023/12/08 01:49:25;;;;;;;5.55;2.10;;;-2.20;99.90;;;;;;5012135;28;20392;-59
2023/12/08 01:51:52;;;;;;;6.72;2.97;;;-2.20;99.90;;;;;;5013593;28;20654;-59
2023/12/08 01:54:19;;;;;;;5.18;3.05;;;-2.10;99.90;;;;;;5006304;28;20038;-58
2023/12/08 01:56:46;;;;;;;4.60;2.40;;;-2.10;99.90;;;;;;5014294;28;20041;-59
2023/12/08 01:59:14;;;;;;;5.05;2.47;;;-2.10;99.90;;;;;;5014374;28;20050;-59
2023/12/08 02:01:40;;;;;;;7.15;2.85;;;-2.10;99.90;;;;;;5009495;28;20445;-56
2023/12/08 02:04:07;;;;;;;4.35;2.80;;;-2.00;99.90;;;;;;5003112;28;20057;-58
2023/12/08 02:06:35;;;;;;;6.07;2.42;;;-2.00;99.90;;;;;;5011730;28;20046;-60
2023/12/08 02:09:02;;;;;;;4.45;2.20;;;-2.00;99.90;;;;;;5018804;28;20132;-60
2023/12/08 02:11:29;;;;;;;4.43;2.50;;;-2.00;99.90;;;;;;5014200;28;20054;-59
2023/12/08 02:13:56;;;;;;;;;;;-2.00;99.90;;;;;;5014334;28;20038;-59
2023/12/08 02:16:33;;;;;;;3.33;2.00;;;-2.00;99.90;;;;;;5013616;28;19921;-60
2023/12/08 02:19:03;;;;;;;3.83;2.45;;;-2.00;99.90;;;;;;5014130;28;20482;-59
2023/12/08 02:21:30;;;;;;;5.10;2.42;;;-2.00;99.90;;;;;;5006793;28;20471;-59
2023/12/08 02:23:57;;;;;;;3.28;2.00;;;-2.00;99.90;;;;;;5020030;28;20030;-59
2023/12/08 02:26:24;;;;;;;3.33;2.08;;;-2.00;99.90;;;;;;5010305;28;20057;-59
2023/12/08 02:28:51;;;;;;;4.43;2.08;;;-1.90;99.90;;;;;;5011709;28;20038;-59
2023/12/08 02:31:24;;;;;;;4.60;2.22;;;-2.00;99.90;;;;;;5012142;28;20048;-60
2023/12/08 02:33:53;;;;;;;4.22;1.95;;;-2.00;99.90;;;;;;5008822;28;20046;-57
2023/12/08 02:36:20;;;;;;;5.22;2.50;;;-2.00;99.90;;;;;;5010063;28;20066;-60
2023/12/08 02:38:47;;;;;;;;;;;-2.00;99.90;;;;;;5013663;28;20056;-60
2023/12/08 02:41:14;;;;;;;5.32;2.05;;;-2.00;99.90;;;;;;5013330;28;19921;-60
2023/12/08 02:43:41;;;;;;;6.00;2.42;;;-2.00;99.90;;;;;;5011600;28;20041;-59
2023/12/08 02:46:08;;;;;;;4.47;2.05;;;-2.00;99.90;;;;;;5013453;28;20042;-59
2023/12/08 02:48:35;;;;;;;5.07;2.38;;;-2.10;99.90;;;;;;5012878;28;20046;-60
2023/12/08 02:51:03;;;;;;;4.20;2.33;;;-2.10;99.90;;;;;;5008042;28;20045;-59
2023/12/08 02:53:30;;;;;;;5.28;2.22;;;-2.00;99.90;;;;;;5009953;28;20042;-59
2023/12/08 02:55:57;;;;;;;3.58;2.33;;;-2.10;99.90;;;;;;5013247;28;20512;-59
2023/12/08 02:58:24;;;;;;;3.35;2.38;;;-2.20;99.90;;;;;;5013259;28;20046;-58
2023/12/08 03:00:51;;;;;;;4.43;2.20;;;-2.30;99.90;;;;;;5009403;28;20046;-60
2023/12/08 03:03:18;;;;;;;4.05;2.72;;;-2.40;99.90;;;;;;5012536;28;20442;-60
2023/12/08 03:05:45;;;;;;;4.45;2.63;;;-2.50;99.90;;;;;;5004100;28;20041;-59
2023/12/08 03:08:12;;;;;;;5.20;2.45;;;-2.50;99.90;;;;;;5005072;28;20533;-56
2023/12/08 03:14:34;;;;;;;4.65;2.67;;;-2.80;99.90;;;;;;5012700;28;20118;-59
2023/12/08 03:17:01;;;;;;;5.93;2.83;;;-2.90;99.90;;;;;;5008849;28;20045;-59
2023/12/08 03:19:28;;;;;;;4.35;2.55;;;-2.80;99.90;;;;;;5018908;28;20064;-59
2023/12/08 03:21:55;;;;;;;5.80;3.45;;;-2.70;99.90;;;;;;5011336;28;20038;-60
2023/12/08 03:24:21;;;;;;;3.70;2.65;;;-2.60;99.90;;;;;;5007763;28;20053;-60
2023/12/08 03:26:48;;;;;;;7.00;2.88;;;-2.60;99.90;;;;;;5012477;28;20057;-59
2023/12/08 03:29:15;;;;;;;4.25;2.25;;;-2.50;99.90;;;;;;5008221;28;20488;-59
2023/12/08 03:31:43;;;;;;;4.35;2.47;;;-2.50;99.90;;;;;;5010575;28;20048;-59
2023/12/08 03:34:10;;;;;;;3.45;2.25;;;-2.40;99.90;;;;;;5011519;28;20104;-59
2023/12/08 03:36:37;;;;;;;4.65;2.38;;;-2.40;99.90;;;;;;5012490;28;20053;-60
2023/12/08 03:39:04;;;;;;;7.18;2.45;;;-2.40;99.90;;;;;;5006871;28;20060;-59
2023/12/08 03:41:31;;;;;;;4.70;2.70;;;-2.40;99.90;;;;;;5011799;28;20052;-60
2023/12/08 03:43:58;;;;;;;6.68;2.17;;;-2.40;99.90;;;;;;5010253;28;20042;-60
2023/12/08 03:46:25;;;;;;;4.47;2.58;;;-2.50;99.90;;;;;;5008604;28;20042;-58
2023/12/08 03:48:51;;;;;;;5.88;3.05;;;-2.50;99.90;;;;;;5011391;28;20368;-59
2023/12/08 03:51:21;;;;;;;3.85;2.40;;;-2.60;99.90;;;;;;5011939;28;20053;-59
2023/12/08 03:53:48;;;;;;;4.72;2.90;;;-2.60;99.90;;;;;;5001751;28;20049;-60
2023/12/08 03:56:15;;;;;;;5.97;2.97;;;-2.60;99.90;;;;;;5012106;28;20049;-59
2023/12/08 03:58:41;;;;;;;4.80;2.90;;;-2.60;99.90;;;;;;5011899;28;20514;-59
2023/12/08 04:01:08;;;;;;;3.15;1.90;;;-2.60;99.90;;;;;;5011882;28;20072;-59
2023/12/08 04:03:39;;;;;;;4.70;2.70;;;-2.50;99.90;;;;;;5007268;28;20100;-59
2023/12/08 04:06:07;;;;;;;4.75;2.30;;;-2.50;99.90;;;;;;5005681;28;20041;-59
2023/12/08 04:08:33;;;;;;;;;;;-2.50;99.90;;;;;;5011289;28;20041;-60
2023/12/08 04:11:00;;;;;;;5.63;2.72;;;-2.50;99.90;;;;;;5004223;28;19921;-59
2023/12/08 04:13:27;;;;;;;6.88;2.67;;;-2.50;99.90;;;;;;5004747;28;20137;-59
2023/12/08 04:15:54;;;;;;;5.45;2.20;;;-2.50;99.90;;;;;;5019634;28;20471;-60
2023/12/08 04:18:21;;;;;;;3.75;2.15;;;-2.40;99.90;;;;;;5017632;28;20076;-58
2023/12/08 04:20:48;;;;;;;8.80;3.95;;;-2.30;99.90;;;;;;5011124;28;20467;-60
2023/12/08 04:23:14;;;;;;;8.25;4.15;;;-2.30;99.90;;;;;;5008931;28;20126;-58
2023/12/08 04:25:41;;;;;;;6.03;3.63;;;-2.40;99.90;;;;;;5024104;28;20038;-59
2023/12/08 04:28:08;;;;;;;4.18;2.63;;;-2.40;99.90;;;;;;5021286;28;20063;-60
2023/12/08 04:30:35;;;;;;;6.75;2.92;;;-2.50;99.90;;;;;;5014569;28;20039;-59
2023/12/08 04:33:02;;;;;;;6.40;2.75;;;-2.50;99.90;;;;;;5010611;28;20125;-58
2023/12/08 04:35:29;;;;;;;3.33;2.30;;;-2.40;99.90;;;;;;5008970;28;20045;-58
2023/12/08 04:37:55;;;;;;;5.45;3.03;;;-2.40;99.90;;;;;;5010952;28;20526;-58
2023/12/08 04:40:22;;;;;;;9.95;2.95;;;-2.30;99.90;;;;;;5011391;28;20060;-59
2023/12/08 04:42:49;;;;;;;3.25;2.30;;;-2.30;99.90;;;;;;5010452;28;20045;-58
2023/12/08 04:45:16;;;;;;;3.85;2.00;;;-2.30;99.90;;;;;;5011775;28;20042;-60
2023/12/08 04:47:43;;;;;;;5.72;3.10;;;-2.40;99.90;;;;;;5008659;28;20043;-59
2023/12/08 04:50:10;;;;;;;3.50;2.22;;;-2.40;99.90;;;;;;5011552;28;20402;-60
2023/12/08 04:52:36;;;;;;;3.15;1.67;;;-2.40;99.90;;;;;;5010770;28;20348;-59
2023/12/08 04:55:04;;;;;;;5.55;2.83;;;-2.40;99.90;;;;;;5011646;28;20038;-60
2023/12/08 04:57:32;;;;;;;8.07;2.90;;;-2.30;99.90;;;;;;5010050;28;20056;-60
2023/12/08 04:59:59;;;;;;;9.05;4.05;;;-2.30;99.90;;;;;;5011568;28;20041;-59
2023/12/08 05:02:26;;;;;;;8.30;2.95;;;-2.30;99.90;;;;;;5003399;28;20574;-59
2023/12/08 05:04:53;;;;;;;5.07;2.67;;;-2.30;99.90;;;;;;5006189;28;20410;-59
2023/12/08 05:07:19;;;;;;;9.68;3.30;;;-2.20;99.90;;;;;;5009371;28;20100;-60
2023/12/08 05:09:46;;;;;;;4.38;2.03;;;-2.20;99.90;;;;;;5009227;28;20376;-60
2023/12/08 05:12:13;;;;;;;6.57;3.10;;;-2.20;99.90;;;;;;5010295;28;20459;-59
2023/12/08 05:14:40;;;;;;;4.93;2.70;;;-2.10;99.90;;;;;;5027843;28;20601;-59
2023/12/08 05:17:07;;;;;;;6.28;2.53;;;-2.00;99.90;;;;;;5012050;28;20093;-60
2023/12/08 05:19:33;;;;;;;10.20;3.22;;;-2.00;99.90;;;;;;5011453;28;20056;-58
2023/12/08 05:22:03;;;;;;;6.18;2.53;;;-2.00;99.90;;;;;;5014706;28;20097;-58
2023/12/08 05:24:30;;;;;;;5.68;3.05;;;-1.90;99.90;;;;;;5002420;28;20070;-59
2023/12/08 05:26:57;;;;;;;4.25;2.97;;;-1.90;99.90;;;;;;5002238;28;20052;-59
2023/12/08 05:29:24;;;;;;;5.50;3.35;;;-1.90;99.90;;;;;;5016132;28;20045;-60
2023/12/08 05:31:51;;;;;;;4.40;2.70;;;-2.00;99.90;;;;;;5011819;28;20053;-59
2023/12/08 05:34:18;;;;;;;7.80;2.97;;;-2.10;99.90;;;;;;5016371;28;20421;-60
2023/12/08 05:36:45;;;;;;;7.82;3.05;;;-2.20;99.90;;;;;;5013349;28;20046;-60
2023/12/08 05:39:12;;;;;;;10.68;5.20;;;-2.20;99.90;;;;;;5011231;28;20046;-60
2023/12/08 05:41:39;;;;;;;11.93;5.43;;;-2.20;99.90;;;;;;5013339;28;20057;-59
2023/12/08 05:44:05;;;;;;;6.20;3.15;;;-2.10;99.90;;;;;;5004003;28;20048;-59
2023/12/08 05:46:32;;;;;;;6.35;3.70;;;-2.10;99.90;;;;;;5009636;28;20388;-59
2023/12/08 05:48:59;;;;;;;5.13;3.22;;;-2.10;99.90;;;;;;5012838;28;20398;-59
2023/12/08 05:51:26;;;;;;;6.65;3.67;;;-2.10;99.90;;;;;;5013997;28;20050;-59
2023/12/08 05:53:53;;;;;;;9.85;5.20;;;-2.10;99.90;;;;;;5013677;28;20054;-60
2023/12/08 05:56:19;;;;;;;7.40;3.75;;;-2.10;99.90;;;;;;5014410;28;20046;-60
2023/12/08 05:58:46;;;;;;;8.15;3.42;;;-2.00;99.90;;;;;;5010133;28;20041;-60
2023/12/08 06:01:14;;;;;;;8.55;4.32;;;-2.00;99.90;;;;;;5008471;28;20052;-60
2023/12/08 06:03:40;;;;;;;4.30;2.58;;;-2.00;99.90;;;;;;5012680;28;20100;-59
2023/12/08 06:06:07;;;;;;;8.35;4.30;;;-2.00;99.90;;;;;;5005068;28;20048;-60
2023/12/08 06:08:34;;;;;;;;;;;-2.00;99.90;;;;;;5010579;28;20100;-59
2023/12/08 06:11:02;;;;;;;7.60;3.88;;;-1.90;99.90;;;;;;5012216;28;19922;-60
2023/12/08 06:13:29;;;;;;;8.57;3.25;;;-1.80;99.90;;;;;;5007967;28;20045;-59
2023/12/08 06:15:56;;;;;;;7.28;4.05;;;-1.80;99.90;;;;;;4999807;28;20045;-60
2023/12/08 06:18:23;;;;;;;9.20;3.80;;;-1.80;99.90;;;;;;5007914;28;20503;-60
2023/12/08 06:20:51;;;;;;;4.72;2.55;;;-1.70;99.90;;;;;;5020997;28;20058;-60
2023/12/08 06:23:17;;;;;;;4.90;2.58;;;-1.50;99.90;;;;;;5010334;28;20041;-59
2023/12/08 06:25:44;;;;;;;4.63;3.00;;;-1.50;99.90;;;;;;5012582;28;20052;-59
2023/12/08 06:28:11;;;;;;;6.38;2.95;;;-1.50;99.90;;;;;;5013187;28;20541;-59
2023/12/08 06:30:38;;;;;;;7.53;3.17;;;-1.40;99.90;;;;;;5011827;28;20036;-59
2023/12/08 06:33:05;;;;;;;5.45;3.45;;;-1.40;99.90;;;;;;5006128;28;20050;-59
2023/12/08 06:35:32;;;;;;;5.80;2.90;;;-1.50;99.90;;;;;;5013585;28;20118;-57
2023/12/08 06:37:58;;;;;;;4.10;2.63;;;-1.50;99.90;;;;;;5012848;28;20058;-59
2023/12/08 06:40:25;;;;;;;4.18;2.58;;;-1.60;99.90;;;;;;5011773;28;20052;-58
2023/12/08 06:42:52;;;;;;;5.03;2.58;;;-1.60;99.90;;;;;;5010043;28;20064;-58
2023/12/08 06:45:19;;;;;;;5.55;3.55;;;-1.70;99.90;;;;;;5010258;28;20052;-58
2023/12/08 06:47:45;;;;;;;8.25;4.30;;;-1.60;99.90;;;;;;5009143;28;20038;-60
2023/12/08 06:50:13;;;;;;;6.75;3.72;;;-1.70;99.90;;;;;;5012293;28;20046;-60
2023/12/08 06:52:40;;;;;;;5.90;2.90;;;-1.70;99.90;;;;;;5011921;28;20041;-60
2023/12/08 06:55:07;;;;;;;6.25;3.10;;;-1.60;99.90;;;;;;5012638;28;20081;-59
2023/12/08 06:57:33;;;;;;;7.00;3.05;;;-1.50;99.90;;;;;;5013287;28;20068;-60
2023/12/08 07:00:00;;;;;;;9.88;3.97;;;-1.50;99.90;;;;;;5005917;28;20068;-59
2023/12/08 07:02:28;;;;;;;12.32;4.80;;;-1.50;99.90;;;;;;5009896;28;20050;-58
2023/12/08 07:04:54;;;;;;;19.33;8.88;;;-1.50;99.90;;;;;;5012624;28;20450;-59
2023/12/08 07:07:22;;;;;;;15.38;6.93;;;-1.40;99.90;;;;;;5010059;28;20486;-60
2023/12/08 07:09:49;;;;;;;11.48;5.03;;;-1.40;99.90;;;;;;5009447;28;20128;-60
2023/12/08 07:12:15;;;;;;;8.30;4.05;;;-1.30;99.90;;;;;;5012488;28;20041;-60
2023/12/08 07:14:42;;;;;;;10.05;4.55;;;-1.30;99.90;;;;;;5012817;28;20088;-59
2023/12/08 07:17:09;;;;;;;6.95;3.35;;;-1.20;99.90;;;;;;5021450;28;20053;-59
2023/12/08 07:19:39;;;;;;;6.00;3.20;;;-1.10;99.90;;;;;;5007390;28;20376;-60
2023/12/08 07:22:06;;;;;;;10.27;3.00;;;-1.10;99.90;;;;;;5019016;28;20045;-60
2023/12/08 07:24:33;;;;;;;8.07;3.45;;;-1.10;99.90;;;;;;5011629;28;20045;-59
2023/12/08 07:26:59;;;;;;;6.15;2.47;;;-1.10;99.90;;;;;;5017427;28;20043;-59
2023/12/08 07:29:27;;;;;;;6.85;3.03;;;-1.00;99.90;;;;;;5010968;28;20438;-60
2023/12/08 07:31:53;;;;;;;6.20;2.75;;;-0.90;99.90;;;;;;5011961;28;20045;-59
2023/12/08 07:34:20;;;;;;;4.85;2.67;;;-0.80;99.90;;;;;;5007809;28;20105;-60
2023/12/08 07:36:47;;;;;;;7.90;3.03;;;-0.70;99.90;;;;;;5008802;28;20050;-60
2023/12/08 07:39:14;;;;;;;4.47;2.67;;;-0.70;99.90;;;;;;5011406;28;20049;-60
2023/12/08 07:41:43;;;;;;;3.92;2.70;;;-0.70;99.90;;;;;;5012149;28;20038;-59
2023/12/08 07:44:10;;;;;;;4.70;2.85;;;-0.60;99.90;;;;;;4997413;28;20121;-60
2023/12/08 07:46:37;;;;;;;5.47;2.95;;;-0.60;99.90;;;;;;5012313;28;20042;-59
2023/12/08 07:49:04;;;;;;;6.57;3.67;;;-0.60;99.90;;;;;;5011913;28;20042;-60
2023/12/08 07:51:32;;;;;;;9.25;4.40;;;-0.60;99.90;;;;;;5008858;28;20437;-60
2023/12/08 07:54:00;;;;;;;11.13;5.15;;;-0.60;99.90;;;;;;5003471;28;20460;-60
2023/12/08 07:56:29;;;;;;;9.35;5.28;;;-0.50;99.90;;;;;;5012148;28;20045;-60
2023/12/08 07:58:55;;;;;;;8.50;5.47;;;-0.50;99.90;;;;;;5012424;28;20454;-60
2023/12/08 08:01:22;;;;;;;8.48;4.47;;;-0.60;99.90;;;;;;5011929;28;20402;-60
2023/12/08 08:03:49;;;;;;;10.40;5.68;;;-0.60;99.90;;;;;;5008126;28;20069;-60
2023/12/08 08:06:16;;;;;;;10.65;5.93;;;-0.50;99.90;;;;;;5001831;28;20042;-60
2023/12/08 08:08:43;;;;;;;14.48;7.53;;;-0.50;99.90;;;;;;5006012;28;20038;-59
2023/12/08 08:11:09;;;;;;;12.05;4.65;;;-0.30;99.90;;;;;;4997150;28;20102;-60
2023/12/08 08:13:36;;;;;;;9.88;4.82;;;-0.40;99.90;;;;;;5008724;28;20132;-60
2023/12/08 08:16:03;;;;;;;9.55;4.63;;;-0.30;99.90;;;;;;5007458;28;20129;-60
2023/12/08 08:18:30;;;;;;;8.18;3.70;;;-0.20;99.90;;;;;;5014933;28;20049;-59
2023/12/08 08:20:57;;;;;;;8.50;3.88;;;-0.10;99.90;;;;;;5007562;28;20116;-60
2023/12/08 08:23:24;;;;;;;6.57;3.40;;;0.00;99.90;;;;;;5003404;28;20494;-59
2023/12/08 08:25:51;;;;;;;14.20;6.22;;;0.00;99.90;;;;;;5011688;28;20042;-59
2023/12/08 08:28:20;;;;;;;12.52;6.22;;;0.00;99.90;;;;;;5007917;28;20048;-60
2023/12/08 08:30:47;;;;;;;12.70;6.35;;;0.00;99.90;;;;;;5006109;28;20687;-59
2023/12/08 08:33:14;;;;;;;17.83;6.82;;;0.00;99.90;;;;;;5010240;28;20034;-60
2023/12/08 08:35:41;;;;;;;;;;;0.10;99.90;;;;;;5011153;28;20049;-60
2023/12/08 08:38:08;;;;;;;11.77;6.13;;;0.20;99.90;;;;;;5006804;28;19972;-59
2023/12/08 08:40:35;;;;;;;13.15;5.68;;;0.30;99.90;;;;;;5009973;28;20140;-60
2023/12/08 08:43:01;;;;;;;15.10;6.40;;;0.40;99.90;;;;;;5010591;28;20046;-59
2023/12/08 08:45:28;;;;;;;21.02;8.20;;;0.50;99.90;;;;;;5008404;28;20061;-60
2023/12/08 08:47:55;;;;;;;34.03;12.30;;;0.50;99.90;;;;;;5010991;28;20560;-60
2023/12/08 08:50:22;;;;;;;26.23;11.30;;;0.50;99.90;;;;;;5011261;28;20139;-59
2023/12/08 08:52:49;;;;;;;20.67;10.23;;;0.50;99.90;;;;;;5010914;28;20110;-59
2023/12/08 08:55:16;;;;;;;9.07;5.53;;;0.50;99.90;;;;;;5010035;28;20132;-59
2023/12/08 08:57:44;;;;;;;;;;;0.60;99.90;;;;;;5011415;28;20045;-60
2023/12/08 09:00:12;;;;;;;8.00;4.57;;;0.70;99.90;;;;;;5005656;28;19988;-60
2023/12/08 09:02:45;;;;;;;14.88;7.35;;;0.80;99.90;;;;;;5010018;28;20726;-59
2023/12/08 09:05:13;;;;;;;13.00;7.35;;;0.80;99.90;;;;;;5007876;28;20046;-59
2023/12/08 09:07:40;;;;;;;23.88;8.82;;;0.90;99.90;;;;;;5010616;28;20113;-60
2023/12/08 09:10:08;;;;;;;22.83;9.93;;;1.00;99.90;;;;;;5004750;28;20491;-60
2023/12/08 09:12:35;;;;;;;16.55;9.00;;;0.90;99.90;;;;;;5009134;28;20030;-59
2023/12/08 09:15:03;;;;;;;7.57;5.20;;;0.90;99.90;;;;;;5010318;28;20052;-59
2023/12/08 09:17:30;;;;;;;9.52;5.53;;;0.90;99.90;;;;;;5014543;28;20046;-60
2023/12/08 09:19:57;;;;;;;;;;;0.90;99.90;;;;;;5006978;28;20046;-56
2023/12/08 09:22:24;;;;;;;8.52;5.68;;;0.90;99.90;;;;;;5013538;28;19943;-59
2023/12/08 09:24:51;;;;;;;14.90;5.07;;;0.90;99.90;;;;;;5013861;28;20491;-60
2023/12/08 09:27:18;;;;;;;7.75;4.43;;;0.80;99.90;;;;;;5014107;28;20061;-59
2023/12/08 09:29:45;;;;;;;11.30;4.65;;;0.80;99.90;;;;;;5005094;28;20042;-60
2023/12/08 09:32:11;;;;;;;7.90;4.15;;;0.90;99.90;;;;;;5013674;28;20096;-59
2023/12/08 09:34:38;;;;;;;8.40;5.45;;;1.00;99.90;;;;;;5014046;28;20046;-60
2023/12/08 09:37:05;;;;;;;12.52;5.05;;;1.20;99.90;;;;;;5007710;28;20046;-59
2023/12/08 09:39:52;;;;;;;16.30;6.07;;;1.40;99.90;;;;;;5009586;28;20053;-60
2023/12/08 09:42:36;;;;;;;11.10;6.03;;;1.60;99.90;;;;;;5013031;28;20416;-60
2023/12/08 09:45:09;;;;;;;9.65;4.88;;;1.70;99.90;;;;;;5007660;28;20045;-63
2023/12/08 09:47:50;;;;;;;8.88;4.70;;;1.80;99.90;;;;;;5010969;28;20042;-60
2023/12/08 09:50:19;;;;;;;13.18;5.50;;;2.10;99.90;;;;;;5012390;28;20491;-60
2023/12/08 10:54:23;;;;;;;9.50;4.15;;;2.90;99.90;;;;;;5236505;23;20062;-61
2023/12/08 10:56:50;;;;;;;9.13;3.92;;;2.90;99.90;;;;;;4984762;28;20471;-61
2023/12/08 10:59:23;;;;;;;7.30;3.85;;;2.90;99.90;;;;;;4985578;28;20058;-58
2023/12/08 11:01:54;;;;;;;9.77;4.85;;;2.80;99.90;;;;;;4992373;28;20417;-61
2023/12/08 11:04:22;;;;;;;5.63;3.58;;;2.80;99.90;;;;;;4993055;28;20050;-60
2023/12/08 11:07:04;;;;;;;7.07;4.00;;;2.90;99.90;;;;;;4984904;28;20046;-63
2023/12/08 11:09:35;;;;;;;9.38;4.20;;;2.80;99.90;;;;;;4983201;28;20039;-63
2023/12/08 11:12:04;;;;;;;13.80;6.93;;;2.80;99.90;;;;;;4992997;28;20038;-62
2023/12/08 11:14:38;;;;;;;10.75;4.78;;;2.80;99.90;;;;;;4992525;28;20547;-62
2023/12/08 11:17:48;;;;;;;10.95;4.88;;;2.80;99.90;;;;;;4980955;28;20050;-59
2023/12/08 11:20:16;;;;;;;7.40;4.40;;;2.90;99.90;;;;;;4960078;28;20062;-62
2023/12/08 11:22:48;;;;;;;9.60;4.88;;;2.90;99.90;;;;;;4969426;28;20051;-62
2023/12/08 11:25:41;;;;;;;8.80;4.90;;;2.70;99.90;;;;;;4986901;28;20073;-61
2023/12/08 11:28:27;;;;;;;11.80;5.50;;;2.70;99.90;;;;;;4978612;28;20054;-62
2023/12/08 11:31:01;;;;;;;8.82;4.82;;;2.80;99.90;;;;;;4986392;28;20076;-62
2023/12/08 11:33:53;;;;;;;14.23;5.22;;;2.90;99.90;;;;;;4992872;28;20125;-61
2023/12/08 11:36:20;;;;;;;13.95;7.90;;;3.00;99.90;;;;;;4990959;28;20451;-60
2023/12/08 11:38:47;;;;;;;23.27;8.60;;;2.90;99.90;;;;;;4991199;28;20541;-62
2023/12/08 11:41:16;;;;;;;32.65;14.45;;;2.80;99.90;;;;;;4986071;28;20042;-61
2023/12/08 11:43:44;;;;;;;24.80;10.25;;;2.70;99.90;;;;;;4991676;28;20509;-61
2023/12/08 11:46:13;;;;;;;23.10;9.90;;;2.70;99.90;;;;;;4992136;28;20046;-61
2023/12/08 11:48:42;;;;;;;23.98;13.25;;;2.80;99.90;;;;;;4986653;28;20043;-61
2023/12/08 11:51:10;;;;;;;20.63;13.27;;;2.70;99.90;;;;;;4974948;28;20058;-62
2023/12/08 11:53:53;;;;;;;13.95;8.00;;;2.70;99.90;;;;;;4990762;28;20042;-60
2023/12/08 11:56:39;;;;;;;18.60;10.35;;;2.60;99.90;;;;;;4990827;28;20092;-61
2023/12/08 11:59:06;;;;;;;13.57;7.57;;;2.70;99.90;;;;;;4990195;28;20053;-62
2023/12/08 12:01:36;;;;;;;14.13;6.00;;;2.70;99.90;;;;;;4984542;28;20054;-62
2023/12/08 12:04:04;;;;;;;10.25;5.43;;;2.70;99.90;;;;;;4989389;28;20137;-61
2023/12/08 12:06:32;;;;;;;;;;;2.60;99.90;;;;;;4978281;28;20069;-61
2023/12/08 12:08:59;;;;;;;16.48;8.15;;;2.60;99.90;;;;;;4985775;28;19980;-62
2023/12/08 12:11:31;;;;;;;10.93;5.15;;;2.60;99.90;;;;;;4989624;28;20046;-61
2023/12/08 12:14:05;;;;;;;11.18;4.10;;;2.70;99.90;;;;;;4991646;28;20073;-60
2023/12/08 12:16:32;;;;;;;14.10;4.82;;;2.70;99.90;;;;;;4990971;28;20697;-61
2023/12/08 12:18:59;;;;;;;12.52;4.43;;;2.70;99.90;;;;;;4990985;28;20406;-62
2023/12/08 12:21:26;;;;;;;9.77;4.75;;;2.70;99.90;;;;;;4985783;28;20049;-60
2023/12/08 12:23:53;;;;;;;11.50;4.75;;;2.70;99.90;;;;;;4991065;28;20054;-62
2023/12/08 12:26:20;;;;;;;10.25;5.13;;;2.60;99.90;;;;;;4987748;28;20039;-60
2023/12/08 12:28:48;;;;;;;8.15;4.57;;;2.60;99.90;;;;;;4988019;28;20077;-61
2023/12/08 12:31:17;;;;;;;9.35;5.55;;;2.60;99.90;;;;;;4986852;28;20093;-61
2023/12/08 12:33:44;;;;;;;12.63;5.40;;;2.50;99.90;;;;;;4994318;28;20066;-62
2023/12/08 12:36:15;;;;;;;13.52;7.03;;;2.50;99.90;;;;;;4999015;28;20097;-61
2023/12/08 12:38:42;;;;;;;11.52;5.20;;;2.60;99.90;;;;;;4992382;28;20042;-60
2023/12/08 12:41:20;;;;;;;13.60;5.53;;;2.50;99.90;;;;;;4989709;28;20529;-61
2023/12/08 12:43:47;;;;;;;12.43;5.47;;;2.50;99.90;;;;;;4990442;28;20046;-62
2023/12/08 12:46:14;;;;;;;12.93;6.07;;;2.50;99.90;;;;;;4983804;28;20564;-61
2023/12/08 12:48:41;;;;;;;11.43;5.78;;;2.50;99.90;;;;;;4983249;28;20049;-61
2023/12/08 12:51:08;;;;;;;9.65;5.32;;;2.50;99.90;;;;;;4979005;28;20135;-60
2023/12/08 12:53:45;;;;;;;11.20;5.72;;;2.40;99.90;;;;;;4999881;28;20379;-61
2023/12/08 12:56:12;;;;;;;9.55;5.40;;;2.40;99.90;;;;;;4999077;28;20051;-60
2023/12/08 12:58:39;;;;;;;11.35;5.47;;;2.50;99.90;;;;;;4999569;28;20046;-61
2023/12/08 13:01:11;;;;;;;13.45;5.68;;;2.50;99.90;;;;;;4992332;28;20438;-62
2023/12/08 13:03:45;;;;;;;9.20;5.55;;;2.50;99.90;;;;;;4995385;28;20145;-61
2023/12/08 13:06:12;;;;;;;12.18;6.03;;;2.50;99.90;;;;;;4992789;28;20045;-60
2023/12/08 13:08:43;;;;;;;13.82;6.10;;;2.50;99.90;;;;;;4992709;28;20074;-60
2023/12/08 13:11:10;;;;;;;13.32;6.13;;;2.40;99.90;;;;;;4982411;28;20526;-62
2023/12/08 13:13:37;;;;;;;6.53;3.80;;;2.40;99.90;;;;;;4989699;28;20424;-61
2023/12/08 13:16:06;;;;;;;14.80;5.90;;;2.40;99.90;;;;;;4994356;28;20050;-61
2023/12/08 13:18:34;;;;;;;18.42;5.45;;;2.50;99.90;;;;;;4995955;28;20050;-61
2023/12/08 13:21:01;;;;;;;9.57;5.10;;;2.50;99.90;;;;;;4988526;28;20051;-60
2023/12/08 13:23:28;;;;;;;12.30;5.65;;;2.50;99.90;;;;;;4994938;28;20042;-61
2023/12/08 13:25:55;;;;;;;9.40;5.40;;;2.50;99.90;;;;;;4984751;28;20088;-61
2023/12/08 13:28:22;;;;;;;9.10;4.95;;;2.40;99.90;;;;;;4994550;28;20049;-60
2023/12/08 13:30:48;;;;;;;12.57;5.50;;;2.40;99.90;;;;;;4993767;28;20121;-60
2023/12/08 13:33:15;;;;;;;15.05;5.88;;;2.40;99.90;;;;;;4991688;28;20055;-61
2023/12/08 13:35:42;;;;;;;9.13;5.30;;;2.30;99.90;;;;;;4991807;28;20038;-61
2023/12/08 13:38:10;;;;;;;8.52;4.85;;;2.30;99.90;;;;;;4994531;28;20053;-61
2023/12/08 13:40:36;;;;;;;;;;;2.30;99.90;;;;;;4995214;28;20145;-61
2023/12/08 13:43:03;;;;;;;13.32;5.40;;;2.30;99.90;;;;;;4992639;28;19928;-57
2023/12/08 13:45:30;;;;;;;12.18;5.60;;;2.40;99.90;;;;;;4989251;28;20047;-61
2023/12/08 13:47:57;;;;;;;13.52;5.60;;;2.30;99.90;;;;;;5001940;28;20045;-62
2023/12/08 13:50:25;;;;;;;13.52;5.38;;;2.30;99.90;;;;;;4997982;28;20483;-60
2023/12/08 13:52:52;;;;;;;11.60;5.72;;;2.30;99.90;;;;;;4995084;28;20064;-59
2023/12/08 13:55:19;;;;;;;10.73;5.80;;;2.30;99.90;;;;;;4985857;28;20042;-61
2023/12/08 13:57:46;;;;;;;19.63;6.03;;;2.30;99.90;;;;;;4984904;28;20057;-61
2023/12/08 14:00:13;;;;;;;10.77;6.13;;;2.30;99.90;;;;;;4989363;28;20045;-60